Time;durP1;ratioP1;P1;durP2;ratioP2;P2;SDS_P1;SDS_P2;PMS_P1;PMS_P2;Temp;Humidity;BMP_temperature;BMP_pressure;BME280_temperature;BME280_humidity;BME280_pressure;Samples;Min_cycle;Max_cycle;Signal;HPM_P1;HPM_P2
2021/04/13 00:00:50;;;;;;;9.699999;6.299999;;;;;;;1.26;100;96113.23;;;;
2021/04/13 00:01:51;;;;;;;9.699999;6.299999;;;;;;;1.26;100;96113.23;;;;
2021/04/13 00:03:14;;;;;;;9.699999;6.299999;;;;;;;1.26;100;96113.23;;;;
2021/04/13 00:04:14;;;;;;;9.699999;6.299999;;;;;;;1.26;100;96113.23;;;;
2021/04/13 00:05:18;;;;;;;9.699999;6.299999;;;;;;;1.26;100;96113.23;;;;
2021/04/13 00:06:27;;;;;;;9.699999;6.299999;;;;;;;1.26;100;96113.23;;;;
2021/04/13 00:07:32;;;;;;;9.699999;6.299999;;;;;;;1.26;100;96113.23;;;;
2021/04/13 00:08:37;;;;;;;10.15;6.65;;;;;;;1.32;100;96119.25;;;;
2021/04/13 00:09:38;;;;;;;10.15;6.65;;;;;;;1.32;100;96119.25;;;;
2021/04/13 00:10:39;;;;;;;10.15;6.65;;;;;;;1.32;100;96119.25;;;;
2021/04/13 00:11:45;;;;;;;10.15;6.65;;;;;;;1.32;100;96119.25;;;;
2021/04/13 00:12:49;;;;;;;10.15;6.65;;;;;;;1.32;100;96119.25;;;;
2021/04/13 00:13:51;;;;;;;10.15;6.65;;;;;;;1.32;100;96119.25;;;;
2021/04/13 00:14:54;;;;;;;10.15;6.65;;;;;;;1.32;100;96119.25;;;;
2021/04/13 00:16:00;;;;;;;10.15;6.65;;;;;;;1.32;100;96119.25;;;;
2021/04/13 00:17:07;;;;;;;10.15;6.65;;;;;;;1.32;100;96119.25;;;;
2021/04/13 00:18:12;;;;;;;10.15;6.65;;;;;;;1.32;100;96119.25;;;;
2021/04/13 00:19:15;;;;;;;9.6;7.050001;;;;;;;1.41;100;96124.95;;;;
2021/04/13 00:20:21;;;;;;;9.6;7.050001;;;;;;;1.41;100;96124.95;;;;
2021/04/13 00:21:33;;;;;;;9.6;7.050001;;;;;;;1.41;100;96124.95;;;;
2021/04/13 00:22:39;;;;;;;9.6;7.050001;;;;;;;1.41;100;96124.95;;;;
2021/04/13 00:23:39;;;;;;;9.6;7.050001;;;;;;;1.41;100;96124.95;;;;
2021/04/13 00:24:40;;;;;;;9.6;7.050001;;;;;;;1.41;100;96124.95;;;;
2021/04/13 00:25:41;;;;;;;9.6;7.050001;;;;;;;1.41;100;96124.95;;;;
2021/04/13 00:26:47;;;;;;;9.6;7.050001;;;;;;;1.41;100;96124.95;;;;
2021/04/13 00:27:50;;;;;;;9.6;7.050001;;;;;;;1.41;100;96124.95;;;;
2021/04/13 00:28:51;;;;;;;9.6;7.050001;;;;;;;1.41;100;96124.95;;;;
2021/04/13 00:29:53;;;;;;;8.949999;6.799999;;;;;;;1.46;100;96118.23;;;;
2021/04/13 00:31:05;;;;;;;8.949999;6.799999;;;;;;;1.46;100;96118.23;;;;
2021/04/13 00:32:08;;;;;;;8.949999;6.799999;;;;;;;1.46;100;96118.23;;;;
2021/04/13 00:33:10;;;;;;;8.949999;6.799999;;;;;;;1.46;100;96118.23;;;;
2021/04/13 00:34:15;;;;;;;8.949999;6.799999;;;;;;;1.46;100;96118.23;;;;
2021/04/13 00:35:31;;;;;;;8.949999;6.799999;;;;;;;1.46;100;96118.23;;;;
2021/04/13 00:36:33;;;;;;;8.949999;6.799999;;;;;;;1.46;100;96118.23;;;;
2021/04/13 00:37:34;;;;;;;8.949999;6.799999;;;;;;;1.46;100;96118.23;;;;
2021/04/13 00:38:35;;;;;;;8.949999;6.799999;;;;;;;1.46;100;96118.23;;;;
2021/04/13 00:39:38;;;;;;;8.949999;6.799999;;;;;;;1.46;100;96118.23;;;;
2021/04/13 00:40:39;;;;;;;8.950001;6.45;;;;;;;1.49;100;96124.16;;;;
2021/04/13 00:41:41;;;;;;;8.950001;6.45;;;;;;;1.49;100;96124.16;;;;
2021/04/13 00:42:44;;;;;;;8.950001;6.45;;;;;;;1.49;100;96124.16;;;;
2021/04/13 00:43:45;;;;;;;8.950001;6.45;;;;;;;1.49;100;96124.16;;;;
2021/04/13 00:44:49;;;;;;;8.950001;6.45;;;;;;;1.49;100;96124.16;;;;
2021/04/13 00:45:54;;;;;;;8.950001;6.45;;;;;;;1.49;100;96124.16;;;;
2021/04/13 00:46:57;;;;;;;8.950001;6.45;;;;;;;1.49;100;96124.16;;;;
2021/04/13 00:48:01;;;;;;;8.950001;6.45;;;;;;;1.49;100;96124.16;;;;
2021/04/13 00:49:05;;;;;;;8.950001;6.45;;;;;;;1.49;100;96124.16;;;;
2021/04/13 00:50:06;;;;;;;8.950001;6.45;;;;;;;1.49;100;96124.16;;;;
2021/04/13 00:51:10;;;;;;;9.050001;6.6;;;;;;;1.55;100;96128.34;;;;
2021/04/13 00:52:23;;;;;;;9.050001;6.6;;;;;;;1.55;100;96128.34;;;;
2021/04/13 00:53:34;;;;;;;9.050001;6.6;;;;;;;1.55;100;96128.34;;;;
2021/04/13 00:54:37;;;;;;;9.050001;6.6;;;;;;;1.55;100;96128.34;;;;
2021/04/13 00:55:42;;;;;;;9.050001;6.6;;;;;;;1.55;100;96128.34;;;;
2021/04/13 00:56:48;;;;;;;9.050001;6.6;;;;;;;1.55;100;96128.34;;;;
2021/04/13 00:57:49;;;;;;;9.050001;6.6;;;;;;;1.55;100;96128.34;;;;
2021/04/13 00:59:00;;;;;;;9.050001;6.6;;;;;;;1.55;100;96128.34;;;;
2021/04/13 01:00:07;;;;;;;9.050001;6.6;;;;;;;1.55;100;96128.34;;;;
2021/04/13 01:01:18;;;;;;;8.049999;6.500001;;;;;;;1.61;100;96135.27;;;;
2021/04/13 01:02:22;;;;;;;8.049999;6.500001;;;;;;;1.61;100;96135.27;;;;
2021/04/13 01:03:27;;;;;;;8.049999;6.500001;;;;;;;1.61;100;96135.27;;;;
2021/04/13 01:04:28;;;;;;;8.049999;6.500001;;;;;;;1.61;100;96135.27;;;;
2021/04/13 01:05:32;;;;;;;8.049999;6.500001;;;;;;;1.61;100;96135.27;;;;
2021/04/13 01:06:38;;;;;;;8.049999;6.500001;;;;;;;1.61;100;96135.27;;;;
2021/04/13 01:07:38;;;;;;;8.049999;6.500001;;;;;;;1.61;100;96135.27;;;;
2021/04/13 01:08:41;;;;;;;8.049999;6.500001;;;;;;;1.61;100;96135.27;;;;
2021/04/13 01:09:41;;;;;;;8.049999;6.500001;;;;;;;1.61;100;96135.27;;;;
2021/04/13 01:10:44;;;;;;;8.049999;6.500001;;;;;;;1.61;100;96135.27;;;;
2021/04/13 01:11:45;;;;;;;8.049999;6.500001;;;;;;;1.61;100;96135.27;;;;
2021/04/13 01:12:49;;;;;;;8.999999;6.250001;;;;;;;1.62;100;96127.22;;;;
2021/04/13 01:13:53;;;;;;;8.999999;6.250001;;;;;;;1.62;100;96127.22;;;;
2021/04/13 01:14:56;;;;;;;8.999999;6.250001;;;;;;;1.62;100;96127.22;;;;
2021/04/13 01:15:59;;;;;;;8.999999;6.250001;;;;;;;1.62;100;96127.22;;;;
2021/04/13 01:17:01;;;;;;;8.999999;6.250001;;;;;;;1.62;100;96127.22;;;;
2021/04/13 01:18:06;;;;;;;8.999999;6.250001;;;;;;;1.62;100;96127.22;;;;
2021/04/13 01:19:11;;;;;;;8.999999;6.250001;;;;;;;1.62;100;96127.22;;;;
2021/04/13 01:20:22;;;;;;;8.999999;6.250001;;;;;;;1.62;100;96127.22;;;;
2021/04/13 01:21:30;;;;;;;8.999999;6.250001;;;;;;;1.62;100;96127.22;;;;
2021/04/13 01:22:45;;;;;;;8.75;6.200001;;;;;;;1.53;100;96124.19;;;;
2021/04/13 01:23:52;;;;;;;8.75;6.200001;;;;;;;1.53;100;96124.19;;;;
2021/04/13 01:24:53;;;;;;;8.75;6.200001;;;;;;;1.53;100;96124.19;;;;
2021/04/13 01:25:59;;;;;;;8.75;6.200001;;;;;;;1.53;100;96124.19;;;;
2021/04/13 01:27:04;;;;;;;8.75;6.200001;;;;;;;1.53;100;96124.19;;;;
2021/04/13 01:28:10;;;;;;;8.75;6.200001;;;;;;;1.53;100;96124.19;;;;
2021/04/13 01:29:13;;;;;;;8.75;6.200001;;;;;;;1.53;100;96124.19;;;;
2021/04/13 01:30:16;;;;;;;8.75;6.200001;;;;;;;1.53;100;96124.19;;;;
2021/04/13 01:31:41;;;;;;;8.75;6.200001;;;;;;;1.53;100;96124.19;;;;
2021/04/13 01:32:44;;;;;;;8.75;6.200001;;;;;;;1.53;100;96124.19;;;;
2021/04/13 01:33:49;;;;;;;8.699999;6.95;;;;;;;1.52;100;96122.44;;;;
2021/04/13 01:34:54;;;;;;;8.699999;6.95;;;;;;;1.52;100;96122.44;;;;
2021/04/13 01:35:59;;;;;;;8.699999;6.95;;;;;;;1.52;100;96122.44;;;;
2021/04/13 01:37:03;;;;;;;8.699999;6.95;;;;;;;1.52;100;96122.44;;;;
2021/04/13 01:38:17;;;;;;;8.699999;6.95;;;;;;;1.52;100;96122.44;;;;
2021/04/13 01:39:23;;;;;;;8.699999;6.95;;;;;;;1.52;100;96122.44;;;;
2021/04/13 01:40:27;;;;;;;8.699999;6.95;;;;;;;1.52;100;96122.44;;;;
2021/04/13 01:41:41;;;;;;;8.699999;6.95;;;;;;;1.52;100;96122.44;;;;
2021/04/13 01:42:46;;;;;;;8.699999;6.95;;;;;;;1.52;100;96122.44;;;;
2021/04/13 01:43:50;;;;;;;8.699999;6.95;;;;;;;1.52;100;96122.44;;;;
2021/04/13 01:44:50;;;;;;;9.85;7.050001;;;;;;;1.55;100;96125.25;;;;
2021/04/13 01:45:54;;;;;;;9.85;7.050001;;;;;;;1.55;100;96125.25;;;;
2021/04/13 01:46:56;;;;;;;9.85;7.050001;;;;;;;1.55;100;96125.25;;;;
2021/04/13 01:47:58;;;;;;;9.85;7.050001;;;;;;;1.55;100;96125.25;;;;
2021/04/13 01:49:02;;;;;;;9.85;7.050001;;;;;;;1.55;100;96125.25;;;;
2021/04/13 01:50:03;;;;;;;9.85;7.050001;;;;;;;1.55;100;96125.25;;;;
2021/04/13 01:51:07;;;;;;;9.85;7.050001;;;;;;;1.55;100;96125.25;;;;
2021/04/13 01:52:10;;;;;;;9.85;7.050001;;;;;;;1.55;100;96125.25;;;;
2021/04/13 01:53:14;;;;;;;9.85;7.050001;;;;;;;1.55;100;96125.25;;;;
2021/04/13 01:54:17;;;;;;;9.85;7.050001;;;;;;;1.55;100;96125.25;;;;
2021/04/13 01:55:19;;;;;;;10.2;7.75;;;;;;;1.49;100;96121.41;;;;
2021/04/13 01:56:22;;;;;;;10.2;7.75;;;;;;;1.49;100;96121.41;;;;
2021/04/13 01:57:35;;;;;;;10.2;7.75;;;;;;;1.49;100;96121.41;;;;
2021/04/13 01:58:44;;;;;;;10.2;7.75;;;;;;;1.49;100;96121.41;;;;
2021/04/13 01:59:48;;;;;;;10.2;7.75;;;;;;;1.49;100;96121.41;;;;
2021/04/13 02:00:53;;;;;;;10.2;7.75;;;;;;;1.49;100;96121.41;;;;
2021/04/13 02:02:01;;;;;;;10.2;7.75;;;;;;;1.49;100;96121.41;;;;
2021/04/13 02:03:14;;;;;;;10.2;7.75;;;;;;;1.49;100;96121.41;;;;
2021/04/13 02:04:20;;;;;;;10.2;7.75;;;;;;;1.49;100;96121.41;;;;
2021/04/13 02:05:29;;;;;;;10.95;8.25;;;;;;;1.43;100;96123.39;;;;
2021/04/13 02:06:32;;;;;;;10.95;8.25;;;;;;;1.43;100;96123.39;;;;
2021/04/13 02:07:42;;;;;;;10.95;8.25;;;;;;;1.43;100;96123.39;;;;
2021/04/13 02:08:51;;;;;;;10.95;8.25;;;;;;;1.43;100;96123.39;;;;
2021/04/13 02:10:03;;;;;;;10.95;8.25;;;;;;;1.43;100;96123.39;;;;
2021/04/13 02:11:12;;;;;;;10.95;8.25;;;;;;;1.43;100;96123.39;;;;
2021/04/13 02:12:17;;;;;;;10.95;8.25;;;;;;;1.43;100;96123.39;;;;
2021/04/13 02:13:24;;;;;;;10.95;8.25;;;;;;;1.43;100;96123.39;;;;
2021/04/13 02:14:31;;;;;;;10.95;8.25;;;;;;;1.43;100;96123.39;;;;
2021/04/13 02:15:36;;;;;;;10.95;8.25;;;;;;;1.43;100;96123.39;;;;
2021/04/13 02:16:47;;;;;;;12.25;8.499998;;;;;;;1.39;100;96122.52;;;;
2021/04/13 02:17:51;;;;;;;12.25;8.499998;;;;;;;1.39;100;96122.52;;;;
2021/04/13 02:18:56;;;;;;;12.25;8.499998;;;;;;;1.39;100;96122.52;;;;
2021/04/13 02:19:57;;;;;;;12.25;8.499998;;;;;;;1.39;100;96122.52;;;;
2021/04/13 02:20:59;;;;;;;12.25;8.499998;;;;;;;1.39;100;96122.52;;;;
2021/04/13 02:22:04;;;;;;;12.25;8.499998;;;;;;;1.39;100;96122.52;;;;
2021/04/13 02:23:08;;;;;;;12.25;8.499998;;;;;;;1.39;100;96122.52;;;;
2021/04/13 02:24:09;;;;;;;12.25;8.499998;;;;;;;1.39;100;96122.52;;;;
2021/04/13 02:25:12;;;;;;;12.25;8.499998;;;;;;;1.39;100;96122.52;;;;
2021/04/13 02:26:16;;;;;;;12.25;8.499998;;;;;;;1.39;100;96122.52;;;;
2021/04/13 02:27:18;;;;;;;9.85;7.45;;;;;;;1.36;100;96117.53;;;;
2021/04/13 02:28:23;;;;;;;9.85;7.45;;;;;;;1.36;100;96117.53;;;;
2021/04/13 02:29:25;;;;;;;9.85;7.45;;;;;;;1.36;100;96117.53;;;;
2021/04/13 02:30:32;;;;;;;9.85;7.45;;;;;;;1.36;100;96117.53;;;;
2021/04/13 02:31:37;;;;;;;9.85;7.45;;;;;;;1.36;100;96117.53;;;;
2021/04/13 02:32:38;;;;;;;9.85;7.45;;;;;;;1.36;100;96117.53;;;;
2021/04/13 02:33:43;;;;;;;9.85;7.45;;;;;;;1.36;100;96117.53;;;;
2021/04/13 02:34:45;;;;;;;9.85;7.45;;;;;;;1.36;100;96117.53;;;;
2021/04/13 02:35:50;;;;;;;9.85;7.45;;;;;;;1.36;100;96117.53;;;;
2021/04/13 02:36:51;;;;;;;9.85;7.45;;;;;;;1.36;100;96117.53;;;;
2021/04/13 02:37:56;;;;;;;11.45;7.849999;;;;;;;1.42;100;96115.16;;;;
2021/04/13 02:39:00;;;;;;;11.45;7.849999;;;;;;;1.42;100;96115.16;;;;
2021/04/13 02:40:02;;;;;;;11.45;7.849999;;;;;;;1.42;100;96115.16;;;;
2021/04/13 02:41:10;;;;;;;11.45;7.849999;;;;;;;1.42;100;96115.16;;;;
2021/04/13 02:42:18;;;;;;;11.45;7.849999;;;;;;;1.42;100;96115.16;;;;
2021/04/13 02:43:21;;;;;;;11.45;7.849999;;;;;;;1.42;100;96115.16;;;;
2021/04/13 02:44:26;;;;;;;11.45;7.849999;;;;;;;1.42;100;96115.16;;;;
2021/04/13 02:45:27;;;;;;;11.45;7.849999;;;;;;;1.42;100;96115.16;;;;
2021/04/13 02:46:31;;;;;;;11.45;7.849999;;;;;;;1.42;100;96115.16;;;;
2021/04/13 02:47:34;;;;;;;11.45;7.849999;;;;;;;1.42;100;96115.16;;;;
2021/04/13 02:48:45;;;;;;;11.3;8.299999;;;;;;;1.41;100;96097.44;;;;
2021/04/13 02:50:00;;;;;;;11.3;8.299999;;;;;;;1.41;100;96097.44;;;;
2021/04/13 02:51:04;;;;;;;11.3;8.299999;;;;;;;1.41;100;96097.44;;;;
2021/04/13 02:52:09;;;;;;;11.3;8.299999;;;;;;;1.41;100;96097.44;;;;
2021/04/13 02:53:16;;;;;;;11.3;8.299999;;;;;;;1.41;100;96097.44;;;;
2021/04/13 02:54:22;;;;;;;11.3;8.299999;;;;;;;1.41;100;96097.44;;;;
2021/04/13 02:55:27;;;;;;;11.3;8.299999;;;;;;;1.41;100;96097.44;;;;
2021/04/13 02:56:31;;;;;;;11.3;8.299999;;;;;;;1.41;100;96097.44;;;;
2021/04/13 02:57:35;;;;;;;11.3;8.299999;;;;;;;1.41;100;96097.44;;;;
2021/04/13 02:58:39;;;;;;;11.3;8.299999;;;;;;;1.41;100;96097.44;;;;
2021/04/13 02:59:48;;;;;;;11.9;8.599999;;;;;;;1.4;100;96107.34;;;;
2021/04/13 03:00:50;;;;;;;11.9;8.599999;;;;;;;1.4;100;96107.34;;;;
2021/04/13 03:01:54;;;;;;;11.9;8.599999;;;;;;;1.4;100;96107.34;;;;
2021/04/13 03:03:04;;;;;;;11.9;8.599999;;;;;;;1.4;100;96107.34;;;;
2021/04/13 03:04:07;;;;;;;11.9;8.599999;;;;;;;1.4;100;96107.34;;;;
2021/04/13 03:05:10;;;;;;;11.9;8.599999;;;;;;;1.4;100;96107.34;;;;
2021/04/13 03:06:17;;;;;;;11.9;8.599999;;;;;;;1.4;100;96107.34;;;;
2021/04/13 03:07:21;;;;;;;11.9;8.599999;;;;;;;1.4;100;96107.34;;;;
2021/04/13 03:08:26;;;;;;;11.9;8.599999;;;;;;;1.4;100;96107.34;;;;
2021/04/13 03:09:29;;;;;;;11;7.849999;;;;;;;1.42;100;96106.27;;;;
2021/04/13 03:10:36;;;;;;;11;7.849999;;;;;;;1.42;100;96106.27;;;;
2021/04/13 03:11:40;;;;;;;11;7.849999;;;;;;;1.42;100;96106.27;;;;
2021/04/13 03:12:45;;;;;;;11;7.849999;;;;;;;1.42;100;96106.27;;;;
2021/04/13 03:13:50;;;;;;;11;7.849999;;;;;;;1.42;100;96106.27;;;;
2021/04/13 03:14:53;;;;;;;11;7.849999;;;;;;;1.42;100;96106.27;;;;
2021/04/13 03:15:57;;;;;;;11;7.849999;;;;;;;1.42;100;96106.27;;;;
2021/04/13 03:16:59;;;;;;;11;7.849999;;;;;;;1.42;100;96106.27;;;;
2021/04/13 03:18:01;;;;;;;11;7.849999;;;;;;;1.42;100;96106.27;;;;
2021/04/13 03:19:07;;;;;;;11;7.849999;;;;;;;1.42;100;96106.27;;;;
2021/04/13 03:20:10;;;;;;;12.15;7.75;;;;;;;1.37;100;96103.64;;;;
2021/04/13 03:21:14;;;;;;;12.15;7.75;;;;;;;1.37;100;96103.64;;;;
2021/04/13 03:22:19;;;;;;;12.15;7.75;;;;;;;1.37;100;96103.64;;;;
2021/04/13 03:23:20;;;;;;;12.15;7.75;;;;;;;1.37;100;96103.64;;;;
2021/04/13 03:24:27;;;;;;;12.15;7.75;;;;;;;1.37;100;96103.64;;;;
2021/04/13 03:25:31;;;;;;;12.15;7.75;;;;;;;1.37;100;96103.64;;;;
2021/04/13 03:26:34;;;;;;;12.15;7.75;;;;;;;1.37;100;96103.64;;;;
2021/04/13 03:27:44;;;;;;;12.15;7.75;;;;;;;1.37;100;96103.64;;;;
2021/04/13 03:28:45;;;;;;;12.15;7.75;;;;;;;1.37;100;96103.64;;;;
2021/04/13 03:29:52;;;;;;;12.15;7.75;;;;;;;1.37;100;96103.64;;;;
2021/04/13 03:31:00;;;;;;;12.65;8.700001;;;;;;;1.33;100;96105.47;;;;
2021/04/13 03:32:03;;;;;;;12.65;8.700001;;;;;;;1.33;100;96105.47;;;;
2021/04/13 03:33:05;;;;;;;12.65;8.700001;;;;;;;1.33;100;96105.47;;;;
2021/04/13 03:34:11;;;;;;;12.65;8.700001;;;;;;;1.33;100;96105.47;;;;
2021/04/13 03:35:12;;;;;;;12.65;8.700001;;;;;;;1.33;100;96105.47;;;;
2021/04/13 03:36:13;;;;;;;12.65;8.700001;;;;;;;1.33;100;96105.47;;;;
2021/04/13 03:37:17;;;;;;;12.65;8.700001;;;;;;;1.33;100;96105.47;;;;
2021/04/13 03:38:18;;;;;;;12.65;8.700001;;;;;;;1.33;100;96105.47;;;;
2021/04/13 03:39:23;;;;;;;12.65;8.700001;;;;;;;1.33;100;96105.47;;;;
2021/04/13 03:40:27;;;;;;;12.65;8.700001;;;;;;;1.33;100;96105.47;;;;
2021/04/13 03:41:32;;;;;;;13.1;9.2;;;;;;;1.29;100;96099.64;;;;
2021/04/13 03:42:35;;;;;;;13.1;9.2;;;;;;;1.29;100;96099.64;;;;
2021/04/13 03:43:36;;;;;;;13.1;9.2;;;;;;;1.29;100;96099.64;;;;
2021/04/13 03:44:38;;;;;;;13.1;9.2;;;;;;;1.29;100;96099.64;;;;
2021/04/13 03:45:39;;;;;;;13.1;9.2;;;;;;;1.29;100;96099.64;;;;
2021/04/13 03:46:41;;;;;;;13.1;9.2;;;;;;;1.29;100;96099.64;;;;
2021/04/13 03:47:43;;;;;;;13.1;9.2;;;;;;;1.29;100;96099.64;;;;
2021/04/13 03:48:46;;;;;;;13.1;9.2;;;;;;;1.29;100;96099.64;;;;
2021/04/13 03:49:49;;;;;;;13.1;9.2;;;;;;;1.29;100;96099.64;;;;
2021/04/13 03:50:51;;;;;;;13.1;9.2;;;;;;;1.29;100;96099.64;;;;
2021/04/13 03:51:58;;;;;;;13.1;9.2;;;;;;;1.29;100;96099.64;;;;
2021/04/13 03:53:04;;;;;;;13.4;9.350001;;;;;;;1.28;100;96092.21;;;;
2021/04/13 03:54:08;;;;;;;13.4;9.350001;;;;;;;1.28;100;96092.21;;;;
2021/04/13 03:55:19;;;;;;;13.4;9.350001;;;;;;;1.28;100;96092.21;;;;
2021/04/13 03:56:22;;;;;;;13.4;9.350001;;;;;;;1.28;100;96092.21;;;;
2021/04/13 03:57:26;;;;;;;13.4;9.350001;;;;;;;1.28;100;96092.21;;;;
2021/04/13 03:58:29;;;;;;;13.4;9.350001;;;;;;;1.28;100;96092.21;;;;
2021/04/13 03:59:35;;;;;;;13.4;9.350001;;;;;;;1.28;100;96092.21;;;;
2021/04/13 04:00:39;;;;;;;13.4;9.350001;;;;;;;1.28;100;96092.21;;;;
2021/04/13 04:01:42;;;;;;;13.4;9.350001;;;;;;;1.28;100;96092.21;;;;
2021/04/13 04:02:42;;;;;;;13.4;9.350001;;;;;;;1.28;100;96092.21;;;;
2021/04/13 04:03:44;;;;;;;13;9.25;;;;;;;1.27;100;96101.62;;;;
2021/04/13 04:04:51;;;;;;;13;9.25;;;;;;;1.27;100;96101.62;;;;
2021/04/13 04:06:06;;;;;;;13;9.25;;;;;;;1.27;100;96101.62;;;;
2021/04/13 04:07:06;;;;;;;13;9.25;;;;;;;1.27;100;96101.62;;;;
2021/04/13 04:08:17;;;;;;;13;9.25;;;;;;;1.27;100;96101.62;;;;
2021/04/13 04:09:27;;;;;;;13;9.25;;;;;;;1.27;100;96101.62;;;;
2021/04/13 04:10:37;;;;;;;13;9.25;;;;;;;1.27;100;96101.62;;;;
2021/04/13 04:11:48;;;;;;;13;9.25;;;;;;;1.27;100;96101.62;;;;
2021/04/13 04:12:49;;;;;;;13;9.25;;;;;;;1.27;100;96101.62;;;;
2021/04/13 04:13:57;;;;;;;12.85;9.4;;;;;;;1.26;100;96103.53;;;;
2021/04/13 04:14:58;;;;;;;12.85;9.4;;;;;;;1.26;100;96103.53;;;;
2021/04/13 04:16:03;;;;;;;12.85;9.4;;;;;;;1.26;100;96103.53;;;;
2021/04/13 04:17:07;;;;;;;12.85;9.4;;;;;;;1.26;100;96103.53;;;;
2021/04/13 04:18:17;;;;;;;12.85;9.4;;;;;;;1.26;100;96103.53;;;;
2021/04/13 04:19:28;;;;;;;12.85;9.4;;;;;;;1.26;100;96103.53;;;;
2021/04/13 04:20:28;;;;;;;12.85;9.4;;;;;;;1.26;100;96103.53;;;;
2021/04/13 04:21:32;;;;;;;12.85;9.4;;;;;;;1.26;100;96103.53;;;;
2021/04/13 04:22:35;;;;;;;12.85;9.4;;;;;;;1.26;100;96103.53;;;;
2021/04/13 04:23:46;;;;;;;12.85;9.4;;;;;;;1.26;100;96103.53;;;;
2021/04/13 04:24:53;;;;;;;13.8;9.200001;;;;;;;1.24;100;96099.77;;;;
2021/04/13 04:25:55;;;;;;;13.8;9.200001;;;;;;;1.24;100;96099.77;;;;
2021/04/13 04:26:59;;;;;;;13.8;9.200001;;;;;;;1.24;100;96099.77;;;;
2021/04/13 04:28:03;;;;;;;13.8;9.200001;;;;;;;1.24;100;96099.77;;;;
2021/04/13 04:29:13;;;;;;;13.8;9.200001;;;;;;;1.24;100;96099.77;;;;
2021/04/13 04:30:18;;;;;;;13.8;9.200001;;;;;;;1.24;100;96099.77;;;;
2021/04/13 04:31:34;;;;;;;13.8;9.200001;;;;;;;1.24;100;96099.77;;;;
2021/04/13 04:32:37;;;;;;;13.8;9.200001;;;;;;;1.24;100;96099.77;;;;
2021/04/13 04:33:41;;;;;;;13.8;9.200001;;;;;;;1.24;100;96099.77;;;;
2021/04/13 04:34:41;;;;;;;13.8;9.200001;;;;;;;1.24;100;96099.77;;;;
2021/04/13 04:35:53;;;;;;;12.75;9.849999;;;;;;;1.19;100;96112.62;;;;
2021/04/13 04:36:54;;;;;;;12.75;9.849999;;;;;;;1.19;100;96112.62;;;;
2021/04/13 04:37:55;;;;;;;12.75;9.849999;;;;;;;1.19;100;96112.62;;;;
2021/04/13 04:39:02;;;;;;;12.75;9.849999;;;;;;;1.19;100;96112.62;;;;
2021/04/13 04:40:21;;;;;;;12.75;9.849999;;;;;;;1.19;100;96112.62;;;;
2021/04/13 04:41:41;;;;;;;12.75;9.849999;;;;;;;1.19;100;96112.62;;;;
2021/04/13 04:42:41;;;;;;;12.75;9.849999;;;;;;;1.19;100;96112.62;;;;
2021/04/13 04:43:54;;;;;;;12.75;9.849999;;;;;;;1.19;100;96112.62;;;;
2021/04/13 04:44:55;;;;;;;12.75;9.849999;;;;;;;1.19;100;96112.62;;;;
2021/04/13 04:46:16;;;;;;;16.75;10.4;;;;;;;1.23;100;96119.36;;;;
2021/04/13 04:47:38;;;;;;;16.75;10.4;;;;;;;1.23;100;96119.36;;;;
2021/04/13 04:48:39;;;;;;;16.75;10.4;;;;;;;1.23;100;96119.36;;;;
2021/04/13 04:49:40;;;;;;;16.75;10.4;;;;;;;1.23;100;96119.36;;;;
2021/04/13 04:50:41;;;;;;;16.75;10.4;;;;;;;1.23;100;96119.36;;;;
2021/04/13 04:51:41;;;;;;;16.75;10.4;;;;;;;1.23;100;96119.36;;;;
2021/04/13 04:52:47;;;;;;;16.75;10.4;;;;;;;1.23;100;96119.36;;;;
2021/04/13 04:53:47;;;;;;;16.75;10.4;;;;;;;1.23;100;96119.36;;;;
2021/04/13 04:54:48;;;;;;;16.75;10.4;;;;;;;1.23;100;96119.36;;;;
2021/04/13 04:55:48;;;;;;;16.75;10.4;;;;;;;1.23;100;96119.36;;;;
2021/04/13 04:56:50;;;;;;;14.6;10.4;;;;;;;1.27;100;96118.91;;;;
2021/04/13 04:57:50;;;;;;;14.6;10.4;;;;;;;1.27;100;96118.91;;;;
2021/04/13 04:58:51;;;;;;;14.6;10.4;;;;;;;1.27;100;96118.91;;;;
2021/04/13 04:59:51;;;;;;;14.6;10.4;;;;;;;1.27;100;96118.91;;;;
2021/04/13 05:00:52;;;;;;;14.6;10.4;;;;;;;1.27;100;96118.91;;;;
2021/04/13 05:01:54;;;;;;;14.6;10.4;;;;;;;1.27;100;96118.91;;;;
2021/04/13 05:02:55;;;;;;;14.6;10.4;;;;;;;1.27;100;96118.91;;;;
2021/04/13 05:03:56;;;;;;;14.6;10.4;;;;;;;1.27;100;96118.91;;;;
2021/04/13 05:04:57;;;;;;;14.6;10.4;;;;;;;1.27;100;96118.91;;;;
2021/04/13 05:05:57;;;;;;;14.6;10.4;;;;;;;1.27;100;96118.91;;;;
2021/04/13 05:06:58;;;;;;;14.3;10.2;;;;;;;1.34;100;96136.31;;;;
2021/04/13 05:07:59;;;;;;;14.3;10.2;;;;;;;1.34;100;96136.31;;;;
2021/04/13 05:08:59;;;;;;;14.3;10.2;;;;;;;1.34;100;96136.31;;;;
2021/04/13 05:10:00;;;;;;;14.3;10.2;;;;;;;1.34;100;96136.31;;;;
2021/04/13 05:11:00;;;;;;;14.3;10.2;;;;;;;1.34;100;96136.31;;;;
2021/04/13 05:12:02;;;;;;;14.3;10.2;;;;;;;1.34;100;96136.31;;;;
2021/04/13 05:13:04;;;;;;;14.3;10.2;;;;;;;1.34;100;96136.31;;;;
2021/04/13 05:14:05;;;;;;;14.3;10.2;;;;;;;1.34;100;96136.31;;;;
2021/04/13 05:15:05;;;;;;;14.3;10.2;;;;;;;1.34;100;96136.31;;;;
2021/04/13 05:16:07;;;;;;;14.3;10.2;;;;;;;1.34;100;96136.31;;;;
2021/04/13 05:17:08;;;;;;;14.3;10.2;;;;;;;1.34;100;96136.31;;;;
2021/04/13 05:18:09;;;;;;;15.45;10.7;;;;;;;1.45;100;96141.85;;;;
2021/04/13 05:19:10;;;;;;;15.45;10.7;;;;;;;1.45;100;96141.85;;;;
2021/04/13 05:20:10;;;;;;;15.45;10.7;;;;;;;1.45;100;96141.85;;;;
2021/04/13 05:21:12;;;;;;;15.45;10.7;;;;;;;1.45;100;96141.85;;;;
2021/04/13 05:22:13;;;;;;;15.45;10.7;;;;;;;1.45;100;96141.85;;;;
2021/04/13 05:23:13;;;;;;;15.45;10.7;;;;;;;1.45;100;96141.85;;;;
2021/04/13 05:24:14;;;;;;;15.45;10.7;;;;;;;1.45;100;96141.85;;;;
2021/04/13 05:25:16;;;;;;;15.45;10.7;;;;;;;1.45;100;96141.85;;;;
2021/04/13 05:26:17;;;;;;;15.45;10.7;;;;;;;1.45;100;96141.85;;;;
2021/04/13 05:27:18;;;;;;;15.45;10.7;;;;;;;1.45;100;96141.85;;;;
2021/04/13 05:28:18;;;;;;;15.25;11.55;;;;;;;1.64;100;96144.25;;;;
2021/04/13 05:29:20;;;;;;;15.25;11.55;;;;;;;1.64;100;96144.25;;;;
2021/04/13 05:30:21;;;;;;;15.25;11.55;;;;;;;1.64;100;96144.25;;;;
2021/04/13 05:31:23;;;;;;;15.25;11.55;;;;;;;1.64;100;96144.25;;;;
2021/04/13 05:32:23;;;;;;;15.25;11.55;;;;;;;1.64;100;96144.25;;;;
2021/04/13 05:33:24;;;;;;;15.25;11.55;;;;;;;1.64;100;96144.25;;;;
2021/04/13 05:34:26;;;;;;;15.25;11.55;;;;;;;1.64;100;96144.25;;;;
2021/04/13 05:35:26;;;;;;;15.25;11.55;;;;;;;1.64;100;96144.25;;;;
2021/04/13 05:36:27;;;;;;;15.25;11.55;;;;;;;1.64;100;96144.25;;;;
2021/04/13 05:37:28;;;;;;;15.25;11.55;;;;;;;1.64;100;96144.25;;;;
2021/04/13 05:38:30;;;;;;;15.25;11.55;;;;;;;1.64;100;96144.25;;;;
2021/04/13 05:39:34;;;;;;;18.65;12.9;;;;;;;1.83;100;96148.42;;;;
2021/04/13 05:40:35;;;;;;;18.65;12.9;;;;;;;1.83;100;96148.42;;;;
2021/04/13 05:41:39;;;;;;;18.65;12.9;;;;;;;1.83;100;96148.42;;;;
2021/04/13 05:42:39;;;;;;;18.65;12.9;;;;;;;1.83;100;96148.42;;;;
2021/04/13 05:43:40;;;;;;;18.65;12.9;;;;;;;1.83;100;96148.42;;;;
2021/04/13 05:44:42;;;;;;;18.65;12.9;;;;;;;1.83;100;96148.42;;;;
2021/04/13 05:45:42;;;;;;;18.65;12.9;;;;;;;1.83;100;96148.42;;;;
2021/04/13 05:46:46;;;;;;;18.65;12.9;;;;;;;1.83;100;96148.42;;;;
2021/04/13 05:47:47;;;;;;;18.65;12.9;;;;;;;1.83;100;96148.42;;;;
2021/04/13 05:48:48;;;;;;;18.65;12.9;;;;;;;1.83;100;96148.42;;;;
2021/04/13 05:49:48;;;;;;;18.05;12.55;;;;;;;2.05;100;96153.65;;;;
2021/04/13 05:50:49;;;;;;;18.05;12.55;;;;;;;2.05;100;96153.65;;;;
2021/04/13 05:51:49;;;;;;;18.05;12.55;;;;;;;2.05;100;96153.65;;;;
2021/04/13 05:52:50;;;;;;;18.05;12.55;;;;;;;2.05;100;96153.65;;;;
2021/04/13 05:53:50;;;;;;;18.05;12.55;;;;;;;2.05;100;96153.65;;;;
2021/04/13 05:54:51;;;;;;;18.05;12.55;;;;;;;2.05;100;96153.65;;;;
2021/04/13 05:55:51;;;;;;;18.05;12.55;;;;;;;2.05;100;96153.65;;;;
2021/04/13 05:56:54;;;;;;;18.05;12.55;;;;;;;2.05;100;96153.65;;;;
2021/04/13 05:57:54;;;;;;;18.05;12.55;;;;;;;2.05;100;96153.65;;;;
2021/04/13 05:58:59;;;;;;;18.05;12.55;;;;;;;2.05;100;96153.65;;;;
2021/04/13 06:00:01;;;;;;;18.05;12.55;;;;;;;2.05;100;96153.65;;;;
2021/04/13 06:01:04;;;;;;;17.95;12.65;;;;;;;2.3;100;96153.19;;;;
2021/04/13 06:02:07;;;;;;;17.95;12.65;;;;;;;2.3;100;96153.19;;;;
2021/04/13 06:03:13;;;;;;;17.95;12.65;;;;;;;2.3;100;96153.19;;;;
2021/04/13 06:04:16;;;;;;;17.95;12.65;;;;;;;2.3;100;96153.19;;;;
2021/04/13 06:05:17;;;;;;;17.95;12.65;;;;;;;2.3;100;96153.19;;;;
2021/04/13 06:06:25;;;;;;;17.95;12.65;;;;;;;2.3;100;96153.19;;;;
2021/04/13 06:07:25;;;;;;;17.95;12.65;;;;;;;2.3;100;96153.19;;;;
2021/04/13 06:08:26;;;;;;;17.95;12.65;;;;;;;2.3;100;96153.19;;;;
2021/04/13 06:09:27;;;;;;;17.95;12.65;;;;;;;2.3;100;96153.19;;;;
2021/04/13 06:10:27;;;;;;;17.95;12.65;;;;;;;2.3;100;96153.19;;;;
2021/04/13 06:11:28;;;;;;;18.7;13.55;;;;;;;2.59;100;96158.37;;;;
2021/04/13 06:12:30;;;;;;;18.7;13.55;;;;;;;2.59;100;96158.37;;;;
2021/04/13 06:13:31;;;;;;;18.7;13.55;;;;;;;2.59;100;96158.37;;;;
2021/04/13 06:14:32;;;;;;;18.7;13.55;;;;;;;2.59;100;96158.37;;;;
2021/04/13 06:15:33;;;;;;;18.7;13.55;;;;;;;2.59;100;96158.37;;;;
2021/04/13 06:16:37;;;;;;;18.7;13.55;;;;;;;2.59;100;96158.37;;;;
2021/04/13 06:17:37;;;;;;;18.7;13.55;;;;;;;2.59;100;96158.37;;;;
2021/04/13 06:18:38;;;;;;;18.7;13.55;;;;;;;2.59;100;96158.37;;;;
2021/04/13 06:19:39;;;;;;;18.7;13.55;;;;;;;2.59;100;96158.37;;;;
2021/04/13 06:20:39;;;;;;;18.7;13.55;;;;;;;2.59;100;96158.37;;;;